Terminal Aerodrome Forecast
Issued by NWS

Home | Current Version | Previous Version | Text Only | Print | Product List | Glossary On
Versions: 1 2 3 4 5 6 7 8 9 10 11 12 13 14 15 16 17 18 19 20 21 22 23 24 25
000
FTUS41 KGYX 271924 AAA
TAFPSM
TAF AMD
KPSM 271924Z 2719/2818 35020G28KT 1/4SM +SN BLSN VV003
     FM272300 33022G30KT 1/2SM -SN BLSN VV007
     FM280100 34020G28KT 3SM -SN BR OVC015
     FM281200 33012KT P6SM OVC050=

USA.gov is the U.S. government's official web portal to all federal, state and local government web resources and services.